createdAt,value
2023-08-27T00:01:42.997Z,4.20
2023-08-27T00:04:10.890Z,3.70
2023-08-27T00:06:38.799Z,3.80
2023-08-27T00:09:07.102Z,2.00
2023-08-27T00:11:36.271Z,2.70
2023-08-27T00:14:04.548Z,3.80
2023-08-27T00:16:32.872Z,3.70
2023-08-27T00:19:00.689Z,5.20
2023-08-27T00:21:28.400Z,2.10
2023-08-27T00:23:56.116Z,3.90
2023-08-27T00:26:24.081Z,3.80
2023-08-27T00:28:51.952Z,1.50
2023-08-27T00:31:19.862Z,2.20
2023-08-27T00:33:47.987Z,4.70
2023-08-27T00:36:15.745Z,3.30
2023-08-27T00:38:43.410Z,2.30
2023-08-27T00:41:11.176Z,2.50
2023-08-27T00:43:38.937Z,2.60
2023-08-27T00:46:07.667Z,9.50
2023-08-27T00:48:35.590Z,2.60
2023-08-27T00:51:04.355Z,5.50
2023-08-27T00:53:32.144Z,4.30
2023-08-27T00:56:01.158Z,3.30
2023-08-27T00:58:30.123Z,4.20
2023-08-27T01:00:58.816Z,9.40
2023-08-27T01:03:26.921Z,52.40
2023-08-27T01:05:55.052Z,50.00
2023-08-27T01:08:24.363Z,35.30
2023-08-27T01:10:57.915Z,18.40
2023-08-27T01:13:37.189Z,14.40
2023-08-27T01:16:05.100Z,6.00
2023-08-27T01:18:32.923Z,7.60
2023-08-27T01:21:00.680Z,4.30
2023-08-27T01:23:28.554Z,7.50
2023-08-27T01:25:57.236Z,3.70
2023-08-27T01:28:47.756Z,5.70
2023-08-27T01:31:18.770Z,5.60
2023-08-27T01:33:46.634Z,7.20
2023-08-27T01:36:14.400Z,5.20
2023-08-27T01:38:42.162Z,4.20
2023-08-27T01:41:09.933Z,3.80
2023-08-27T01:43:37.793Z,1.90
2023-08-27T01:46:05.553Z,4.50
2023-08-27T01:48:33.322Z,3.00
2023-08-27T01:51:01.313Z,3.00
2023-08-27T01:53:29.980Z,2.70
2023-08-27T01:55:57.683Z,5.70
2023-08-27T01:58:25.403Z,3.80
2023-08-27T02:00:53.307Z,3.40
2023-08-27T02:03:21.348Z,2.00
2023-08-27T02:05:49.915Z,3.50
2023-08-27T02:08:17.694Z,1.70
2023-08-27T02:10:48.720Z,3.00
2023-08-27T02:13:17.040Z,3.10
2023-08-27T02:15:45.069Z,2.30
2023-08-27T02:18:13.035Z,3.00
2023-08-27T02:20:40.902Z,3.20
2023-08-27T02:23:08.564Z,1.70
2023-08-27T02:25:36.941Z,2.50
2023-08-27T02:28:05.626Z,1.90
2023-08-27T02:30:33.398Z,3.70
2023-08-27T02:33:01.537Z,2.50
2023-08-27T02:35:29.633Z,2.70
2023-08-27T02:37:57.344Z,2.80
2023-08-27T02:40:25.059Z,1.70
2023-08-27T02:42:52.923Z,2.00
2023-08-27T02:45:21.403Z,2.30
2023-08-27T02:47:49.312Z,1.80
2023-08-27T02:50:17.252Z,3.70
2023-08-27T02:52:45.103Z,2.90
2023-08-27T02:55:12.987Z,6.20
2023-08-27T02:57:40.936Z,7.90
2023-08-27T03:00:09.643Z,10.70
2023-08-27T03:02:37.495Z,6.80
2023-08-27T03:05:05.824Z,4.90
2023-08-27T03:07:33.523Z,3.40
2023-08-27T03:10:01.296Z,6.00
2023-08-27T03:12:29.053Z,7.50
2023-08-27T03:14:56.717Z,6.20
2023-08-27T03:17:24.508Z,3.00
2023-08-27T03:19:52.246Z,1.90
2023-08-27T03:22:20.005Z,3.10
2023-08-27T03:24:47.972Z,2.90
2023-08-27T03:27:17.476Z,1.40
2023-08-27T03:29:45.547Z,4.80
2023-08-27T03:32:15.255Z,2.70
2023-08-27T03:34:43.033Z,1.80
2023-08-27T03:37:10.791Z,1.90
2023-08-27T03:39:38.649Z,2.20
2023-08-27T03:42:06.415Z,1.20
2023-08-27T03:44:34.793Z,3.70
2023-08-27T03:47:02.655Z,2.20
2023-08-27T03:49:31.238Z,2.10
2023-08-27T03:51:59.415Z,3.20
2023-08-27T03:54:29.131Z,1.20
2023-08-27T03:56:56.888Z,3.50
2023-08-27T03:59:24.650Z,1.40
2023-08-27T04:01:54.260Z,1.40
2023-08-27T04:04:22.021Z,3.90
2023-08-27T04:06:49.887Z,4.60
2023-08-27T04:09:17.749Z,3.10
2023-08-27T04:11:45.829Z,3.40
2023-08-27T04:14:13.393Z,3.70
2023-08-27T04:16:41.004Z,3.80
2023-08-27T04:19:09.111Z,3.70
2023-08-27T04:21:36.986Z,3.50
2023-08-27T04:24:05.044Z,4.40
2023-08-27T04:26:33.017Z,3.60
2023-08-27T04:29:01.198Z,2.70
2023-08-27T04:31:29.015Z,2.60
2023-08-27T04:33:58.870Z,3.00
2023-08-27T04:36:26.734Z,3.40
2023-08-27T04:38:54.393Z,2.30
2023-08-27T04:41:22.090Z,2.70
2023-08-27T04:43:49.921Z,3.90
2023-08-27T04:46:17.683Z,1.90
2023-08-27T04:48:46.678Z,2.60
2023-08-27T04:51:15.975Z,1.90
2023-08-27T04:53:43.746Z,1.40
2023-08-27T04:56:11.502Z,3.30
2023-08-27T04:58:39.220Z,3.80
2023-08-27T05:01:07.511Z,3.90
2023-08-27T05:03:35.749Z,7.90
2023-08-27T05:06:03.784Z,4.20
2023-08-27T05:08:31.596Z,4.70
2023-08-27T05:10:59.211Z,3.90
2023-08-27T05:13:27.161Z,1.90
2023-08-27T05:15:55.045Z,2.60
2023-08-27T05:18:23.241Z,3.10
2023-08-27T05:20:50.982Z,2.30
2023-08-27T05:23:19.562Z,3.80
2023-08-27T05:25:47.325Z,1.80
2023-08-27T05:28:15.194Z,2.60
2023-08-27T05:30:43.987Z,3.50
2023-08-27T05:33:11.847Z,3.00
2023-08-27T05:35:39.918Z,2.30
2023-08-27T05:38:07.696Z,3.60
2023-08-27T05:40:35.657Z,4.00
2023-08-27T05:43:04.917Z,2.20
2023-08-27T05:45:32.717Z,1.30
2023-08-27T05:48:00.665Z,3.00
2023-08-27T05:50:34.792Z,2.00
2023-08-27T05:53:06.660Z,3.70
2023-08-27T05:55:35.236Z,10.10
2023-08-27T05:58:05.013Z,2.40
2023-08-27T06:00:34.148Z,2.70
2023-08-27T06:03:02.138Z,3.20
2023-08-27T06:05:30.095Z,3.80
2023-08-27T06:08:00.185Z,3.80
2023-08-27T06:10:28.373Z,2.80
2023-08-27T06:12:56.747Z,3.70
2023-08-27T06:15:24.616Z,5.00
2023-08-27T06:17:53.164Z,3.80
2023-08-27T06:20:22.751Z,4.00
2023-08-27T06:22:50.486Z,4.40
2023-08-27T06:25:18.375Z,3.50
2023-08-27T06:27:46.083Z,5.50
2023-08-27T06:30:14.098Z,2.50
2023-08-27T06:32:41.843Z,4.70
2023-08-27T06:35:10.716Z,3.70
2023-08-27T06:37:39.412Z,3.70
2023-08-27T06:40:09.040Z,3.50
2023-08-27T06:42:37.093Z,3.10
2023-08-27T06:45:08.373Z,3.80
2023-08-27T06:47:36.249Z,3.30
2023-08-27T06:50:07.542Z,13.70
2023-08-27T06:52:40.833Z,2.10
2023-08-27T06:55:09.573Z,3.20
2023-08-27T06:57:38.213Z,3.20
2023-08-27T07:00:13.952Z,3.00
2023-08-27T07:02:42.408Z,2.20
2023-08-27T07:05:10.410Z,3.20
2023-08-27T07:07:39.296Z,4.50
2023-08-27T07:10:08.653Z,4.80
2023-08-27T07:12:37.129Z,8.20
2023-08-27T07:15:07.300Z,7.00
2023-08-27T07:17:35.645Z,4.00
2023-08-27T07:20:09.105Z,3.00
2023-08-27T07:22:37.047Z,3.80
2023-08-27T07:25:06.803Z,4.50
2023-08-27T07:27:35.588Z,3.50
2023-08-27T07:30:04.102Z,3.70
2023-08-27T07:32:32.708Z,4.80
2023-08-27T07:35:01.000Z,4.00
2023-08-27T07:37:31.947Z,3.90
2023-08-27T07:40:00.132Z,5.70
2023-08-27T07:42:28.166Z,4.30
2023-08-27T07:44:55.827Z,3.80
2023-08-27T07:47:23.724Z,2.60
2023-08-27T07:49:51.668Z,4.20
2023-08-27T07:52:19.426Z,6.00
2023-08-27T07:54:47.232Z,3.20
2023-08-27T07:57:15.058Z,4.80
2023-08-27T07:59:44.251Z,5.30
2023-08-27T08:02:16.562Z,4.70
2023-08-27T08:04:45.820Z,2.00
2023-08-27T08:07:13.600Z,3.90
2023-08-27T08:09:41.303Z,3.90
2023-08-27T08:12:11.974Z,2.30
2023-08-27T08:14:40.546Z,5.80
2023-08-27T08:17:09.841Z,3.00
2023-08-27T08:19:39.083Z,3.50
2023-08-27T08:22:06.709Z,5.90
2023-08-27T08:24:34.422Z,3.90
2023-08-27T08:27:04.252Z,4.60
2023-08-27T08:29:36.670Z,4.60
2023-08-27T08:32:05.145Z,2.90
2023-08-27T08:34:33.528Z,3.50
2023-08-27T08:37:03.029Z,2.40
2023-08-27T08:39:31.048Z,3.70
2023-08-27T08:42:11.385Z,2.60
2023-08-27T08:45:07.020Z,1.50
2023-08-27T08:50:07.408Z,4.80
2023-08-27T08:52:40.621Z,4.50
2023-08-27T08:55:11.897Z,3.30
2023-08-27T08:57:41.828Z,3.20
2023-08-27T09:00:12.912Z,3.00
2023-08-27T09:02:41.401Z,3.20
2023-08-27T09:05:11.576Z,2.80
2023-08-27T09:07:41.123Z,3.00
2023-08-27T09:10:10.093Z,4.70
2023-08-27T09:12:42.079Z,3.70
2023-08-27T09:15:10.864Z,2.70
2023-08-27T09:17:39.496Z,3.30
2023-08-27T09:20:08.742Z,3.80
2023-08-27T09:22:37.836Z,3.70
2023-08-27T09:25:06.556Z,2.90
2023-08-27T09:27:34.422Z,2.80
2023-08-27T09:30:04.229Z,1.90
2023-08-27T09:32:32.122Z,1.90
2023-08-27T09:35:06.969Z,2.20
2023-08-27T09:37:43.201Z,2.30
2023-08-27T09:40:12.391Z,1.90
2023-08-27T09:42:40.474Z,3.80
2023-08-27T09:45:12.078Z,1.50
2023-08-27T09:47:42.326Z,4.70
2023-08-27T09:50:17.395Z,1.80
2023-08-27T09:52:46.103Z,3.50
2023-08-27T09:55:20.377Z,2.80
2023-08-27T09:57:51.391Z,2.20
2023-08-27T10:00:19.598Z,2.60
2023-08-27T10:02:50.201Z,2.20
2023-08-27T10:05:17.886Z,4.10
2023-08-27T10:07:59.041Z,2.20
2023-08-27T10:10:27.977Z,2.50
2023-08-27T10:12:56.537Z,3.30
2023-08-27T10:15:25.399Z,3.70
2023-08-27T10:17:54.144Z,2.40
2023-08-27T10:20:21.995Z,1.90
2023-08-27T10:22:50.273Z,1.90
2023-08-27T10:25:21.207Z,0.90
2023-08-27T10:27:49.982Z,1.70
2023-08-27T10:30:17.949Z,2.10
2023-08-27T10:32:46.037Z,2.30
2023-08-27T10:35:13.717Z,1.90
2023-08-27T10:37:46.624Z,1.10
2023-08-27T10:40:16.897Z,1.30
2023-08-27T10:42:45.016Z,1.80
2023-08-27T10:45:25.472Z,3.00
2023-08-27T10:48:23.672Z,2.40
2023-08-27T10:50:58.350Z,1.90
2023-08-27T10:53:26.448Z,1.70
2023-08-27T10:55:54.297Z,1.30
2023-08-27T10:58:23.251Z,1.20
2023-08-27T11:01:13.260Z,2.90
2023-08-27T11:03:58.368Z,1.70
2023-08-27T11:06:34.241Z,1.80
2023-08-27T11:09:05.602Z,2.20
2023-08-27T11:12:04.509Z,1.50
2023-08-27T11:14:37.784Z,1.50
2023-08-27T11:17:06.182Z,2.20
2023-08-27T11:19:38.382Z,1.90
2023-08-27T11:22:07.289Z,1.40
2023-08-27T11:28:05.649Z,2.70
2023-08-27T11:30:35.039Z,2.40
2023-08-27T11:33:03.894Z,1.60
2023-08-27T11:35:31.789Z,1.40
2023-08-27T11:37:59.834Z,1.30
2023-08-27T11:40:28.239Z,2.20
2023-08-27T11:42:57.094Z,1.30
2023-08-27T11:45:31.762Z,3.30
2023-08-27T11:48:07.258Z,2.40
2023-08-27T11:50:36.016Z,1.70
2023-08-27T11:53:04.011Z,2.60
2023-08-27T11:55:32.413Z,1.40
2023-08-27T11:58:00.623Z,4.90
2023-08-27T12:00:29.432Z,1.70
2023-08-27T12:03:01.977Z,1.80
2023-08-27T12:05:32.108Z,1.20
2023-08-27T12:08:07.003Z,1.60
2023-08-27T12:10:34.805Z,1.10
2023-08-27T12:13:02.569Z,3.30
2023-08-27T12:15:31.149Z,0.90
2023-08-27T12:17:59.349Z,1.50
2023-08-27T12:20:34.162Z,1.80
2023-08-27T12:25:51.695Z,1.60
2023-08-27T12:28:19.543Z,1.60
2023-08-27T12:30:50.807Z,0.90
2023-08-27T12:33:19.392Z,2.20
2023-08-27T12:35:48.695Z,1.90
2023-08-27T12:38:16.565Z,2.60
2023-08-27T12:40:45.659Z,1.80
2023-08-27T12:43:13.269Z,1.60
2023-08-27T12:45:41.041Z,0.90
2023-08-27T12:48:08.781Z,3.00
2023-08-27T12:50:36.444Z,3.70
2023-08-27T12:53:04.210Z,2.50
2023-08-27T12:55:31.834Z,2.70
2023-08-27T12:57:59.928Z,2.60
2023-08-27T13:00:27.770Z,2.60
2023-08-27T13:02:57.822Z,1.30
2023-08-27T13:05:25.869Z,1.70
2023-08-27T13:07:53.496Z,2.80
2023-08-27T13:10:21.161Z,2.70
2023-08-27T13:12:49.770Z,3.20
2023-08-27T13:15:17.530Z,2.10
2023-08-27T13:17:45.305Z,3.60
2023-08-27T13:20:13.031Z,1.80
2023-08-27T13:22:40.748Z,4.90
2023-08-27T13:25:09.416Z,3.00
2023-08-27T13:27:37.163Z,3.40
2023-08-27T13:30:05.368Z,3.50
2023-08-27T13:32:33.220Z,2.40
2023-08-27T13:35:01.404Z,2.70
2023-08-27T13:37:29.475Z,2.30
2023-08-27T13:39:57.348Z,3.60
2023-08-27T13:42:25.924Z,1.70
2023-08-27T13:44:53.779Z,2.10
2023-08-27T13:47:21.654Z,2.90
2023-08-27T13:49:49.460Z,2.60
2023-08-27T13:52:17.999Z,2.50
2023-08-27T13:54:48.389Z,1.50
2023-08-27T13:57:17.419Z,3.90
2023-08-27T13:59:45.185Z,3.10
2023-08-27T14:02:12.945Z,3.70
2023-08-27T14:04:40.714Z,2.60
2023-08-27T14:07:09.942Z,3.30
2023-08-27T14:09:39.321Z,2.40
2023-08-27T14:12:07.542Z,2.30
2023-08-27T14:14:35.354Z,2.60
2023-08-27T14:17:03.218Z,2.50
2023-08-27T14:19:32.069Z,2.10
2023-08-27T14:22:00.702Z,2.60
2023-08-27T14:24:28.768Z,4.50
2023-08-27T14:26:56.638Z,1.40
2023-08-27T14:29:24.834Z,2.50
2023-08-27T14:31:53.348Z,2.20
2023-08-27T14:34:21.332Z,1.90
2023-08-27T14:36:49.146Z,2.20
2023-08-27T14:39:18.431Z,2.20
2023-08-27T14:41:46.599Z,2.60
2023-08-27T14:44:14.408Z,3.40
2023-08-27T14:46:42.239Z,3.50
2023-08-27T14:49:09.889Z,1.40
2023-08-27T14:51:37.869Z,3.60
2023-08-27T14:54:05.830Z,2.70
2023-08-27T14:56:33.601Z,2.90
2023-08-27T14:59:01.472Z,2.80
2023-08-27T15:01:29.264Z,2.00
2023-08-27T15:03:57.102Z,2.90
2023-08-27T15:06:24.964Z,4.00
2023-08-27T15:08:53.952Z,3.00
2023-08-27T15:11:22.335Z,2.70
2023-08-27T15:13:50.107Z,3.60
2023-08-27T15:16:17.866Z,3.00
2023-08-27T15:18:45.627Z,2.90
2023-08-27T15:21:13.390Z,2.80
2023-08-27T15:23:44.145Z,2.40
2023-08-27T15:26:13.631Z,4.00
2023-08-27T15:28:41.707Z,2.40
2023-08-27T15:31:09.587Z,3.60
2023-08-27T15:33:37.742Z,3.10
2023-08-27T15:36:06.282Z,2.60
2023-08-27T15:38:34.091Z,2.60
2023-08-27T15:41:01.856Z,4.20
2023-08-27T15:43:34.361Z,2.50
2023-08-27T15:46:02.937Z,1.50
2023-08-27T15:48:30.882Z,2.70
2023-08-27T15:50:59.784Z,4.00
2023-08-27T15:53:28.639Z,1.90
2023-08-27T15:55:56.640Z,2.60
2023-08-27T15:58:24.912Z,3.80
2023-08-27T16:00:53.144Z,2.40
2023-08-27T16:03:21.104Z,2.20
2023-08-27T16:05:49.082Z,4.50
2023-08-27T16:08:16.992Z,2.90
2023-08-27T16:10:44.855Z,2.50
2023-08-27T16:13:12.732Z,2.40
2023-08-27T16:15:40.489Z,5.40
2023-08-27T16:18:08.452Z,3.60
2023-08-27T16:20:36.643Z,3.20
2023-08-27T16:23:04.814Z,3.70
2023-08-27T16:25:33.948Z,3.20
2023-08-27T16:28:02.123Z,2.30
2023-08-27T16:30:30.485Z,3.10
2023-08-27T16:33:00.358Z,3.60
2023-08-27T16:35:30.063Z,2.30
2023-08-27T16:38:00.178Z,2.40
2023-08-27T16:40:36.102Z,4.00
2023-08-27T16:43:05.039Z,2.30
2023-08-27T16:45:32.890Z,3.50
2023-08-27T16:48:02.206Z,4.40
2023-08-27T16:50:30.635Z,2.60
2023-08-27T16:52:58.840Z,2.70
2023-08-27T16:55:27.072Z,2.10
2023-08-27T16:57:59.069Z,2.60
2023-08-27T17:00:31.193Z,2.10
2023-08-27T17:03:05.234Z,2.30
2023-08-27T17:08:01.704Z,2.80
2023-08-27T17:10:31.320Z,3.10
2023-08-27T17:12:59.196Z,10.40
2023-08-27T17:15:27.143Z,6.40
2023-08-27T17:17:55.163Z,7.30
2023-08-27T17:20:22.989Z,5.60
2023-08-27T17:22:50.811Z,8.80
2023-08-27T17:25:18.516Z,7.40
2023-08-27T17:27:46.107Z,5.50
2023-08-27T17:30:13.864Z,6.50
2023-08-27T17:32:41.501Z,5.70
2023-08-27T17:35:10.047Z,4.60
2023-08-27T17:37:39.288Z,7.40
2023-08-27T17:40:08.257Z,5.20
2023-08-27T17:42:36.017Z,7.90
2023-08-27T17:45:04.774Z,5.60
2023-08-27T17:47:32.485Z,4.50
2023-08-27T17:50:02.072Z,6.30
2023-08-27T17:52:30.474Z,4.50
2023-08-27T17:54:58.429Z,5.50
2023-08-27T17:57:26.810Z,7.60
2023-08-27T17:59:58.406Z,11.30
2023-08-27T18:02:26.274Z,7.60
2023-08-27T18:04:54.317Z,9.00
2023-08-27T18:07:22.272Z,6.00
2023-08-27T18:09:51.582Z,10.20
2023-08-27T18:12:23.854Z,5.20
2023-08-27T18:14:53.359Z,5.00
2023-08-27T18:17:21.717Z,4.70
2023-08-27T18:19:51.124Z,8.10
2023-08-27T18:22:18.884Z,5.50
2023-08-27T18:24:47.881Z,5.90
2023-08-27T18:27:15.767Z,3.40
2023-08-27T18:29:43.699Z,3.80
2023-08-27T18:32:12.916Z,7.50
2023-08-27T18:34:40.679Z,6.40
2023-08-27T18:37:11.392Z,3.40
2023-08-27T18:39:40.657Z,4.70
2023-08-27T18:42:17.538Z,5.90
2023-08-27T18:44:49.102Z,4.40
2023-08-27T18:47:18.562Z,4.00
2023-08-27T18:49:46.206Z,3.00
2023-08-27T18:52:14.261Z,3.90
2023-08-27T18:54:46.133Z,4.20
2023-08-27T18:57:16.710Z,6.20
2023-08-27T18:59:55.039Z,6.20
2023-08-27T19:02:48.497Z,4.20
2023-08-27T19:05:20.421Z,4.70
2023-08-27T19:07:48.454Z,4.00
2023-08-27T19:10:17.416Z,4.00
2023-08-27T19:12:51.881Z,7.00
2023-08-27T19:15:24.772Z,4.20
2023-08-27T19:17:53.464Z,5.60
2023-08-27T19:20:21.677Z,4.00
2023-08-27T19:22:57.191Z,4.10
2023-08-27T19:25:28.233Z,5.20
2023-08-27T19:27:56.386Z,5.00
2023-08-27T19:30:32.159Z,4.70
2023-08-27T19:33:05.688Z,4.10
2023-08-27T19:35:34.718Z,4.10
2023-08-27T19:38:05.825Z,6.50
2023-08-27T19:40:37.016Z,4.80
2023-08-27T19:43:05.169Z,4.10
2023-08-27T19:45:33.482Z,4.00
2023-08-27T19:48:02.105Z,4.90
2023-08-27T19:50:30.387Z,5.20
2023-08-27T19:52:59.132Z,5.60
2023-08-27T19:55:28.871Z,3.80
2023-08-27T19:57:56.675Z,3.80
2023-08-27T20:00:26.870Z,7.50
2023-08-27T20:02:55.197Z,3.40
2023-08-27T20:05:22.908Z,4.70
2023-08-27T20:07:50.648Z,3.80
2023-08-27T20:10:18.670Z,2.90
2023-08-27T20:12:46.636Z,3.50
2023-08-27T20:15:14.598Z,4.00
2023-08-27T20:17:42.275Z,5.30
2023-08-27T20:20:11.062Z,4.50
2023-08-27T20:22:39.121Z,3.40
2023-08-27T20:25:07.604Z,5.80
2023-08-27T20:27:35.260Z,6.60
2023-08-27T20:30:06.160Z,4.70
2023-08-27T20:32:33.890Z,3.50
2023-08-27T20:35:01.728Z,4.70
2023-08-27T20:37:29.797Z,7.00
2023-08-27T20:39:57.867Z,4.70
2023-08-27T20:42:25.543Z,5.50
2023-08-27T20:44:53.292Z,6.50
2023-08-27T20:47:21.160Z,3.40
2023-08-27T20:49:48.872Z,5.80
2023-08-27T20:52:16.592Z,4.10
2023-08-27T20:54:44.558Z,2.90
2023-08-27T20:57:12.273Z,4.60
2023-08-27T20:59:40.079Z,6.10
2023-08-27T21:02:07.947Z,4.30
2023-08-27T21:04:35.738Z,4.40
2023-08-27T21:07:03.582Z,6.20
2023-08-27T21:09:31.339Z,4.60
2023-08-27T21:11:59.101Z,4.90
2023-08-27T21:14:26.874Z,4.70
2023-08-27T21:16:54.733Z,6.30
2023-08-27T21:19:22.806Z,8.50
2023-08-27T21:21:50.672Z,6.80
2023-08-27T21:24:18.534Z,7.50
2023-08-27T21:26:46.300Z,4.20
2023-08-27T21:29:14.066Z,10.60
2023-08-27T21:31:53.582Z,4.60
2023-08-27T21:34:22.811Z,4.10
2023-08-27T21:36:50.671Z,6.30
2023-08-27T21:39:18.429Z,8.10
2023-08-27T21:41:46.198Z,4.20
2023-08-27T21:44:14.066Z,8.50
2023-08-27T21:46:41.926Z,7.90
2023-08-27T21:49:12.879Z,3.00
2023-08-27T21:51:40.941Z,10.50
2023-08-27T21:54:08.707Z,7.70
2023-08-27T21:56:36.473Z,7.60
2023-08-27T21:59:04.229Z,10.40
2023-08-27T22:01:32.091Z,12.70
2023-08-27T22:04:00.068Z,11.20
2023-08-27T22:06:28.810Z,16.30
2023-08-27T22:08:56.614Z,9.10
2023-08-27T22:11:24.388Z,9.90
2023-08-27T22:13:52.249Z,10.40
2023-08-27T22:16:20.073Z,7.00
2023-08-27T22:18:47.978Z,9.00
2023-08-27T22:21:15.740Z,10.30
2023-08-27T22:23:43.508Z,9.60
2023-08-27T22:26:11.269Z,10.00
2023-08-27T22:28:39.050Z,7.60
2023-08-27T22:31:06.805Z,7.20
2023-08-27T22:33:34.559Z,9.60
2023-08-27T22:36:02.319Z,10.80
2023-08-27T22:38:30.193Z,9.20
2023-08-27T22:40:58.161Z,8.60
2023-08-27T22:43:26.028Z,9.60
2023-08-27T22:45:53.889Z,7.20
2023-08-27T22:48:21.757Z,6.10
2023-08-27T22:50:49.519Z,9.60
2023-08-27T22:53:17.287Z,6.80
2023-08-27T22:55:47.161Z,15.60
2023-08-27T22:58:14.959Z,17.00
2023-08-27T23:00:42.861Z,15.70
2023-08-27T23:03:10.837Z,8.90
2023-08-27T23:05:38.864Z,7.70
2023-08-27T23:08:08.062Z,8.60
2023-08-27T23:10:35.944Z,4.30
2023-08-27T23:13:04.432Z,6.30
2023-08-27T23:15:32.482Z,4.20
2023-08-27T23:18:00.597Z,6.70
2023-08-27T23:20:28.443Z,4.70
2023-08-27T23:22:56.285Z,4.50
2023-08-27T23:25:24.151Z,4.90
2023-08-27T23:27:51.915Z,3.50
2023-08-27T23:30:19.691Z,5.70
2023-08-27T23:32:47.708Z,6.70
2023-08-27T23:35:15.839Z,4.90
2023-08-27T23:37:43.996Z,5.20
2023-08-27T23:40:12.232Z,4.70
2023-08-27T23:42:40.137Z,4.30
2023-08-27T23:45:08.818Z,5.60
2023-08-27T23:47:36.678Z,3.50
2023-08-27T23:50:05.985Z,3.10
2023-08-27T23:52:34.061Z,3.60
2023-08-27T23:55:01.935Z,6.60
2023-08-27T23:57:30.130Z,10.00
